sensor_id;sensor_type;location;lat;lon;timestamp;P1;durP1;ratioP1;P2;durP2;ratioP2
6527;SDS011;64597;42.664;23.256;2024-03-08T00:00:58;3.80;;;2.17;;
6527;SDS011;64597;42.664;23.256;2024-03-08T00:03:24;2.85;;;1.80;;
6527;SDS011;64597;42.664;23.256;2024-03-08T00:05:49;3.95;;;1.60;;
6527;SDS011;64597;42.664;23.256;2024-03-08T00:08:15;2.72;;;1.63;;
6527;SDS011;64597;42.664;23.256;2024-03-08T00:10:40;1.92;;;1.10;;
6527;SDS011;64597;42.664;23.256;2024-03-08T00:13:05;3.50;;;1.45;;
6527;SDS011;64597;42.664;23.256;2024-03-08T00:15:31;2.38;;;1.42;;
6527;SDS011;64597;42.664;23.256;2024-03-08T00:17:57;2.63;;;1.35;;
6527;SDS011;64597;42.664;23.256;2024-03-08T00:20:23;3.55;;;1.35;;
6527;SDS011;64597;42.664;23.256;2024-03-08T00:22:48;3.15;;;1.40;;
6527;SDS011;64597;42.664;23.256;2024-03-08T00:25:14;2.47;;;1.38;;
6527;SDS011;64597;42.664;23.256;2024-03-08T00:27:39;5.57;;;1.38;;
6527;SDS011;64597;42.664;23.256;2024-03-08T00:30:06;2.17;;;1.20;;
6527;SDS011;64597;42.664;23.256;2024-03-08T00:32:33;2.20;;;1.30;;
6527;SDS011;64597;42.664;23.256;2024-03-08T00:34:58;2.25;;;1.15;;
6527;SDS011;64597;42.664;23.256;2024-03-08T00:37:24;4.28;;;1.60;;
6527;SDS011;64597;42.664;23.256;2024-03-08T00:39:50;3.33;;;1.50;;
6527;SDS011;64597;42.664;23.256;2024-03-08T00:42:16;4.65;;;1.75;;
6527;SDS011;64597;42.664;23.256;2024-03-08T00:44:42;4.15;;;2.10;;
6527;SDS011;64597;42.664;23.256;2024-03-08T00:47:08;3.53;;;1.40;;
6527;SDS011;64597;42.664;23.256;2024-03-08T00:49:33;3.50;;;1.33;;
6527;SDS011;64597;42.664;23.256;2024-03-08T00:51:59;4.80;;;1.60;;
6527;SDS011;64597;42.664;23.256;2024-03-08T00:54:25;2.45;;;1.45;;
6527;SDS011;64597;42.664;23.256;2024-03-08T00:56:51;4.13;;;1.92;;
6527;SDS011;64597;42.664;23.256;2024-03-08T00:59:16;2.30;;;1.30;;
6527;SDS011;64597;42.664;23.256;2024-03-08T01:01:42;3.03;;;1.63;;
6527;SDS011;64597;42.664;23.256;2024-03-08T01:04:09;3.15;;;1.98;;
6527;SDS011;64597;42.664;23.256;2024-03-08T01:06:35;2.50;;;1.55;;
6527;SDS011;64597;42.664;23.256;2024-03-08T01:09:00;2.90;;;1.70;;
6527;SDS011;64597;42.664;23.256;2024-03-08T01:11:26;2.90;;;1.60;;
6527;SDS011;64597;42.664;23.256;2024-03-08T01:13:53;3.30;;;1.90;;
6527;SDS011;64597;42.664;23.256;2024-03-08T01:16:18;3.47;;;1.60;;
6527;SDS011;64597;42.664;23.256;2024-03-08T01:18:45;3.20;;;2.10;;
6527;SDS011;64597;42.664;23.256;2024-03-08T01:21:11;2.92;;;1.48;;
6527;SDS011;64597;42.664;23.256;2024-03-08T01:23:37;2.33;;;1.42;;
6527;SDS011;64597;42.664;23.256;2024-03-08T01:26:02;2.50;;;1.50;;
6527;SDS011;64597;42.664;23.256;2024-03-08T01:28:28;3.40;;;1.58;;
6527;SDS011;64597;42.664;23.256;2024-03-08T01:30:54;3.70;;;1.50;;
6527;SDS011;64597;42.664;23.256;2024-03-08T01:33:25;1.90;;;1.02;;
6527;SDS011;64597;42.664;23.256;2024-03-08T01:35:52;1.77;;;1.20;;
6527;SDS011;64597;42.664;23.256;2024-03-08T01:38:21;2.10;;;1.15;;
6527;SDS011;64597;42.664;23.256;2024-03-08T01:40:47;2.00;;;1.27;;
6527;SDS011;64597;42.664;23.256;2024-03-08T01:43:22;2.67;;;0.98;;
6527;SDS011;64597;42.664;23.256;2024-03-08T01:45:52;2.05;;;1.27;;
6527;SDS011;64597;42.664;23.256;2024-03-08T01:48:18;2.75;;;1.48;;
6527;SDS011;64597;42.664;23.256;2024-03-08T01:50:44;2.72;;;1.30;;
6527;SDS011;64597;42.664;23.256;2024-03-08T01:53:10;1.33;;;0.95;;
6527;SDS011;64597;42.664;23.256;2024-03-08T01:55:40;2.15;;;1.38;;
6527;SDS011;64597;42.664;23.256;2024-03-08T01:58:06;2.13;;;0.93;;
6527;SDS011;64597;42.664;23.256;2024-03-08T02:00:36;2.70;;;1.70;;
6527;SDS011;64597;42.664;23.256;2024-03-08T02:03:05;3.30;;;1.48;;
6527;SDS011;64597;42.664;23.256;2024-03-08T02:05:31;4.32;;;1.50;;
6527;SDS011;64597;42.664;23.256;2024-03-08T02:07:57;2.40;;;1.48;;
6527;SDS011;64597;42.664;23.256;2024-03-08T02:10:22;2.70;;;1.40;;
6527;SDS011;64597;42.664;23.256;2024-03-08T02:12:48;1.52;;;1.30;;
6527;SDS011;64597;42.664;23.256;2024-03-08T02:15:13;1.88;;;1.33;;
6527;SDS011;64597;42.664;23.256;2024-03-08T02:17:40;2.20;;;1.50;;
6527;SDS011;64597;42.664;23.256;2024-03-08T02:20:06;2.97;;;1.60;;
6527;SDS011;64597;42.664;23.256;2024-03-08T02:22:34;2.38;;;1.55;;
6527;SDS011;64597;42.664;23.256;2024-03-08T02:24:59;2.38;;;1.83;;
6527;SDS011;64597;42.664;23.256;2024-03-08T02:27:28;3.78;;;1.90;;
6527;SDS011;64597;42.664;23.256;2024-03-08T02:29:55;2.22;;;1.70;;
6527;SDS011;64597;42.664;23.256;2024-03-08T02:32:22;3.10;;;1.70;;
6527;SDS011;64597;42.664;23.256;2024-03-08T02:34:48;2.40;;;1.50;;
6527;SDS011;64597;42.664;23.256;2024-03-08T02:37:14;2.22;;;1.35;;
6527;SDS011;64597;42.664;23.256;2024-03-08T02:39:40;2.85;;;1.60;;
6527;SDS011;64597;42.664;23.256;2024-03-08T02:42:06;2.38;;;1.60;;
6527;SDS011;64597;42.664;23.256;2024-03-08T02:44:32;2.00;;;1.40;;
6527;SDS011;64597;42.664;23.256;2024-03-08T02:46:58;2.17;;;1.52;;
6527;SDS011;64597;42.664;23.256;2024-03-08T02:49:25;2.50;;;1.30;;
6527;SDS011;64597;42.664;23.256;2024-03-08T02:51:51;3.28;;;1.80;;
6527;SDS011;64597;42.664;23.256;2024-03-08T02:54:17;2.83;;;1.80;;
6527;SDS011;64597;42.664;23.256;2024-03-08T02:56:44;3.13;;;1.92;;
6527;SDS011;64597;42.664;23.256;2024-03-08T02:59:11;2.72;;;1.70;;
6527;SDS011;64597;42.664;23.256;2024-03-08T03:01:37;2.63;;;1.88;;
6527;SDS011;64597;42.664;23.256;2024-03-08T03:04:03;2.75;;;1.60;;
6527;SDS011;64597;42.664;23.256;2024-03-08T03:06:29;1.92;;;1.40;;
6527;SDS011;64597;42.664;23.256;2024-03-08T03:08:54;3.10;;;1.60;;
6527;SDS011;64597;42.664;23.256;2024-03-08T03:11:22;3.05;;;1.63;;
6527;SDS011;64597;42.664;23.256;2024-03-08T03:13:47;3.80;;;1.40;;
6527;SDS011;64597;42.664;23.256;2024-03-08T03:16:17;2.58;;;1.58;;
6527;SDS011;64597;42.664;23.256;2024-03-08T03:18:46;2.90;;;1.50;;
6527;SDS011;64597;42.664;23.256;2024-03-08T03:21:12;1.80;;;1.02;;
6527;SDS011;64597;42.664;23.256;2024-03-08T03:23:38;1.58;;;1.15;;
6527;SDS011;64597;42.664;23.256;2024-03-08T03:26:05;1.45;;;1.02;;
6527;SDS011;64597;42.664;23.256;2024-03-08T03:28:32;2.83;;;1.00;;
6527;SDS011;64597;42.664;23.256;2024-03-08T03:30:58;2.50;;;0.95;;
6527;SDS011;64597;42.664;23.256;2024-03-08T03:33:24;2.05;;;0.98;;
6527;SDS011;64597;42.664;23.256;2024-03-08T03:35:49;1.30;;;1.02;;
6527;SDS011;64597;42.664;23.256;2024-03-08T03:38:17;1.63;;;1.10;;
6527;SDS011;64597;42.664;23.256;2024-03-08T03:40:42;3.65;;;1.23;;
6527;SDS011;64597;42.664;23.256;2024-03-08T03:43:10;2.63;;;1.30;;
6527;SDS011;64597;42.664;23.256;2024-03-08T03:45:36;2.22;;;1.02;;
6527;SDS011;64597;42.664;23.256;2024-03-08T03:48:05;2.03;;;0.95;;
6527;SDS011;64597;42.664;23.256;2024-03-08T03:50:32;3.03;;;1.02;;
6527;SDS011;64597;42.664;23.256;2024-03-08T03:53:00;2.08;;;1.15;;
6527;SDS011;64597;42.664;23.256;2024-03-08T03:55:27;1.90;;;1.17;;
6527;SDS011;64597;42.664;23.256;2024-03-08T03:57:53;2.45;;;1.20;;
6527;SDS011;64597;42.664;23.256;2024-03-08T04:00:19;1.48;;;0.90;;
6527;SDS011;64597;42.664;23.256;2024-03-08T04:02:44;1.35;;;0.93;;
6527;SDS011;64597;42.664;23.256;2024-03-08T04:05:10;2.10;;;0.98;;
6527;SDS011;64597;42.664;23.256;2024-03-08T04:07:36;1.83;;;0.75;;
6527;SDS011;64597;42.664;23.256;2024-03-08T04:10:03;2.33;;;0.85;;
6527;SDS011;64597;42.664;23.256;2024-03-08T04:12:31;1.55;;;0.85;;
6527;SDS011;64597;42.664;23.256;2024-03-08T04:14:57;1.27;;;0.73;;
6527;SDS011;64597;42.664;23.256;2024-03-08T04:17:23;1.63;;;0.80;;
6527;SDS011;64597;42.664;23.256;2024-03-08T04:19:51;2.38;;;1.13;;
6527;SDS011;64597;42.664;23.256;2024-03-08T04:22:16;2.92;;;1.35;;
6527;SDS011;64597;42.664;23.256;2024-03-08T04:24:43;1.45;;;0.88;;
6527;SDS011;64597;42.664;23.256;2024-03-08T04:27:09;3.40;;;0.98;;
6527;SDS011;64597;42.664;23.256;2024-03-08T04:29:34;2.88;;;1.13;;
6527;SDS011;64597;42.664;23.256;2024-03-08T04:32:01;1.77;;;1.02;;
6527;SDS011;64597;42.664;23.256;2024-03-08T04:34:29;2.20;;;1.05;;
6527;SDS011;64597;42.664;23.256;2024-03-08T04:36:56;1.42;;;0.82;;
6527;SDS011;64597;42.664;23.256;2024-03-08T04:39:23;1.63;;;1.00;;
6527;SDS011;64597;42.664;23.256;2024-03-08T04:41:48;1.77;;;1.08;;
6527;SDS011;64597;42.664;23.256;2024-03-08T04:44:14;1.10;;;0.70;;
6527;SDS011;64597;42.664;23.256;2024-03-08T04:46:41;1.15;;;0.73;;
6527;SDS011;64597;42.664;23.256;2024-03-08T04:49:06;2.00;;;0.85;;
6527;SDS011;64597;42.664;23.256;2024-03-08T04:51:32;1.25;;;0.50;;
6527;SDS011;64597;42.664;23.256;2024-03-08T04:54:00;0.90;;;0.80;;
6527;SDS011;64597;42.664;23.256;2024-03-08T04:56:26;1.67;;;0.80;;
6527;SDS011;64597;42.664;23.256;2024-03-08T04:58:52;1.35;;;0.70;;
6527;SDS011;64597;42.664;23.256;2024-03-08T05:01:19;2.20;;;0.80;;
6527;SDS011;64597;42.664;23.256;2024-03-08T05:03:50;1.88;;;0.85;;
6527;SDS011;64597;42.664;23.256;2024-03-08T05:06:19;2.40;;;0.90;;
6527;SDS011;64597;42.664;23.256;2024-03-08T05:08:56;1.52;;;0.95;;
6527;SDS011;64597;42.664;23.256;2024-03-08T05:12:05;2.08;;;1.30;;
6527;SDS011;64597;42.664;23.256;2024-03-08T05:14:36;2.60;;;1.42;;
6527;SDS011;64597;42.664;23.256;2024-03-08T05:17:17;3.28;;;1.38;;
6527;SDS011;64597;42.664;23.256;2024-03-08T05:19:57;1.67;;;1.30;;
6527;SDS011;64597;42.664;23.256;2024-03-08T05:22:39;2.95;;;1.45;;
6527;SDS011;64597;42.664;23.256;2024-03-08T05:25:30;2.45;;;1.40;;
6527;SDS011;64597;42.664;23.256;2024-03-08T05:28:04;2.72;;;1.52;;
6527;SDS011;64597;42.664;23.256;2024-03-08T05:30:54;2.35;;;1.50;;
6527;SDS011;64597;42.664;23.256;2024-03-08T05:33:32;2.53;;;1.52;;
6527;SDS011;64597;42.664;23.256;2024-03-08T05:36:36;2.85;;;1.88;;
6527;SDS011;64597;42.664;23.256;2024-03-08T05:39:04;2.72;;;1.55;;
6527;SDS011;64597;42.664;23.256;2024-03-08T05:41:31;3.30;;;1.58;;
6527;SDS011;64597;42.664;23.256;2024-03-08T05:43:59;3.38;;;1.98;;
6527;SDS011;64597;42.664;23.256;2024-03-08T05:46:26;6.32;;;2.30;;
6527;SDS011;64597;42.664;23.256;2024-03-08T05:48:52;4.20;;;1.90;;
6527;SDS011;64597;42.664;23.256;2024-03-08T05:51:19;3.72;;;2.50;;
6527;SDS011;64597;42.664;23.256;2024-03-08T05:53:46;5.32;;;3.20;;
6527;SDS011;64597;42.664;23.256;2024-03-08T05:56:12;4.10;;;1.98;;
6527;SDS011;64597;42.664;23.256;2024-03-08T05:58:37;2.90;;;1.92;;
6527;SDS011;64597;42.664;23.256;2024-03-08T06:01:03;5.72;;;2.63;;
6527;SDS011;64597;42.664;23.256;2024-03-08T06:03:33;8.05;;;3.40;;
6527;SDS011;64597;42.664;23.256;2024-03-08T06:05:59;3.72;;;2.25;;
6527;SDS011;64597;42.664;23.256;2024-03-08T06:08:25;5.32;;;2.63;;
6527;SDS011;64597;42.664;23.256;2024-03-08T06:10:54;4.18;;;2.22;;
6527;SDS011;64597;42.664;23.256;2024-03-08T06:13:21;4.32;;;2.13;;
6527;SDS011;64597;42.664;23.256;2024-03-08T06:15:47;7.50;;;2.95;;
6527;SDS011;64597;42.664;23.256;2024-03-08T06:18:13;4.60;;;2.78;;
6527;SDS011;64597;42.664;23.256;2024-03-08T06:20:40;4.18;;;2.40;;
6527;SDS011;64597;42.664;23.256;2024-03-08T06:23:08;4.32;;;2.83;;
6527;SDS011;64597;42.664;23.256;2024-03-08T06:25:34;5.40;;;2.95;;
6527;SDS011;64597;42.664;23.256;2024-03-08T06:28:00;5.72;;;2.83;;
6527;SDS011;64597;42.664;23.256;2024-03-08T06:30:25;5.93;;;3.22;;
6527;SDS011;64597;42.664;23.256;2024-03-08T06:32:51;6.35;;;3.45;;
6527;SDS011;64597;42.664;23.256;2024-03-08T06:35:16;7.07;;;3.22;;
6527;SDS011;64597;42.664;23.256;2024-03-08T06:37:42;5.57;;;3.05;;
6527;SDS011;64597;42.664;23.256;2024-03-08T06:40:09;4.07;;;3.28;;
6527;SDS011;64597;42.664;23.256;2024-03-08T06:42:38;4.03;;;2.80;;
6527;SDS011;64597;42.664;23.256;2024-03-08T06:45:05;5.40;;;3.45;;
6527;SDS011;64597;42.664;23.256;2024-03-08T06:47:31;4.25;;;2.63;;
6527;SDS011;64597;42.664;23.256;2024-03-08T06:49:58;7.40;;;3.28;;
6527;SDS011;64597;42.664;23.256;2024-03-08T06:52:23;6.13;;;2.42;;
6527;SDS011;64597;42.664;23.256;2024-03-08T06:54:51;5.63;;;3.05;;
6527;SDS011;64597;42.664;23.256;2024-03-08T06:57:39;4.13;;;2.78;;
6527;SDS011;64597;42.664;23.256;2024-03-08T07:00:15;5.60;;;2.78;;
6527;SDS011;64597;42.664;23.256;2024-03-08T07:02:58;3.67;;;2.40;;
6527;SDS011;64597;42.664;23.256;2024-03-08T07:05:30;4.88;;;3.03;;
6527;SDS011;64597;42.664;23.256;2024-03-08T07:08:07;4.57;;;2.40;;
6527;SDS011;64597;42.664;23.256;2024-03-08T07:31:59;4.03;;;2.67;;
6527;SDS011;64597;42.664;23.256;2024-03-08T07:35:06;5.18;;;2.70;;
6527;SDS011;64597;42.664;23.256;2024-03-08T07:40:27;4.75;;;2.83;;
6527;SDS011;64597;42.664;23.256;2024-03-08T07:42:52;7.82;;;3.17;;
6527;SDS011;64597;42.664;23.256;2024-03-08T07:45:20;4.68;;;3.05;;
6527;SDS011;64597;42.664;23.256;2024-03-08T07:47:47;4.22;;;2.40;;
6527;SDS011;64597;42.664;23.256;2024-03-08T07:50:18;6.32;;;2.53;;
6527;SDS011;64597;42.664;23.256;2024-03-08T07:52:47;6.60;;;3.30;;
6527;SDS011;64597;42.664;23.256;2024-03-08T07:55:13;9.32;;;3.40;;
6527;SDS011;64597;42.664;23.256;2024-03-08T07:57:40;3.95;;;2.95;;
6527;SDS011;64597;42.664;23.256;2024-03-08T08:00:05;8.27;;;2.75;;
6527;SDS011;64597;42.664;23.256;2024-03-08T08:02:33;8.00;;;3.78;;
6527;SDS011;64597;42.664;23.256;2024-03-08T08:05:00;9.85;;;4.25;;
6527;SDS011;64597;42.664;23.256;2024-03-08T08:07:25;10.55;;;4.63;;
6527;SDS011;64597;42.664;23.256;2024-03-08T08:09:52;8.32;;;4.00;;
6527;SDS011;64597;42.664;23.256;2024-03-08T08:12:17;7.00;;;3.80;;
6527;SDS011;64597;42.664;23.256;2024-03-08T08:14:43;10.43;;;4.25;;
6527;SDS011;64597;42.664;23.256;2024-03-08T08:17:08;8.43;;;3.45;;
6527;SDS011;64597;42.664;23.256;2024-03-08T08:19:34;9.20;;;3.95;;
6527;SDS011;64597;42.664;23.256;2024-03-08T08:22:00;6.50;;;3.50;;
6527;SDS011;64597;42.664;23.256;2024-03-08T08:24:27;7.70;;;3.63;;
6527;SDS011;64597;42.664;23.256;2024-03-08T08:26:53;9.82;;;4.38;;
6527;SDS011;64597;42.664;23.256;2024-03-08T08:29:18;6.32;;;3.70;;
6527;SDS011;64597;42.664;23.256;2024-03-08T08:31:45;5.97;;;3.60;;
6527;SDS011;64597;42.664;23.256;2024-03-08T08:34:11;8.85;;;4.57;;
6527;SDS011;64597;42.664;23.256;2024-03-08T08:36:37;7.63;;;4.53;;
6527;SDS011;64597;42.664;23.256;2024-03-08T08:39:04;7.90;;;4.70;;
6527;SDS011;64597;42.664;23.256;2024-03-08T08:41:30;6.88;;;4.45;;
6527;SDS011;64597;42.664;23.256;2024-03-08T08:43:56;7.00;;;3.35;;
6527;SDS011;64597;42.664;23.256;2024-03-08T08:46:22;6.88;;;3.33;;
6527;SDS011;64597;42.664;23.256;2024-03-08T08:48:47;5.57;;;3.63;;
6527;SDS011;64597;42.664;23.256;2024-03-08T08:51:13;6.97;;;3.35;;
6527;SDS011;64597;42.664;23.256;2024-03-08T08:53:42;7.18;;;3.50;;
6527;SDS011;64597;42.664;23.256;2024-03-08T08:56:14;8.45;;;4.68;;
6527;SDS011;64597;42.664;23.256;2024-03-08T08:58:41;8.30;;;4.82;;
6527;SDS011;64597;42.664;23.256;2024-03-08T09:01:09;7.32;;;4.80;;
6527;SDS011;64597;42.664;23.256;2024-03-08T09:03:37;7.75;;;4.45;;
6527;SDS011;64597;42.664;23.256;2024-03-08T09:06:03;7.80;;;4.55;;
6527;SDS011;64597;42.664;23.256;2024-03-08T09:08:29;6.80;;;5.15;;
6527;SDS011;64597;42.664;23.256;2024-03-08T09:10:55;7.07;;;4.30;;
6527;SDS011;64597;42.664;23.256;2024-03-08T09:13:21;8.63;;;3.50;;
6527;SDS011;64597;42.664;23.256;2024-03-08T09:15:46;5.88;;;4.00;;
6527;SDS011;64597;42.664;23.256;2024-03-08T09:18:12;5.53;;;3.05;;
6527;SDS011;64597;42.664;23.256;2024-03-08T09:20:37;5.68;;;3.10;;
6527;SDS011;64597;42.664;23.256;2024-03-08T09:23:03;5.60;;;3.35;;
6527;SDS011;64597;42.664;23.256;2024-03-08T09:25:29;5.85;;;3.50;;
6527;SDS011;64597;42.664;23.256;2024-03-08T09:27:54;5.88;;;3.88;;
6527;SDS011;64597;42.664;23.256;2024-03-08T09:30:20;5.30;;;3.00;;
6527;SDS011;64597;42.664;23.256;2024-03-08T09:32:46;4.40;;;2.20;;
6527;SDS011;64597;42.664;23.256;2024-03-08T09:35:12;3.63;;;2.45;;
6527;SDS011;64597;42.664;23.256;2024-03-08T09:37:37;3.13;;;2.20;;
6527;SDS011;64597;42.664;23.256;2024-03-08T09:40:03;2.97;;;1.98;;
6527;SDS011;64597;42.664;23.256;2024-03-08T09:42:29;4.93;;;1.90;;
6527;SDS011;64597;42.664;23.256;2024-03-08T09:44:57;7.22;;;2.63;;
6527;SDS011;64597;42.664;23.256;2024-03-08T09:47:23;3.33;;;2.03;;
6527;SDS011;64597;42.664;23.256;2024-03-08T09:49:50;5.72;;;2.75;;
6527;SDS011;64597;42.664;23.256;2024-03-08T09:52:18;5.18;;;3.15;;
6527;SDS011;64597;42.664;23.256;2024-03-08T09:54:43;3.67;;;2.45;;
6527;SDS011;64597;42.664;23.256;2024-03-08T09:57:09;5.97;;;2.65;;
6527;SDS011;64597;42.664;23.256;2024-03-08T09:59:36;4.75;;;2.63;;
6527;SDS011;64597;42.664;23.256;2024-03-08T10:02:01;4.25;;;2.50;;
6527;SDS011;64597;42.664;23.256;2024-03-08T10:04:28;6.00;;;2.17;;
6527;SDS011;64597;42.664;23.256;2024-03-08T10:06:57;3.60;;;2.50;;
6527;SDS011;64597;42.664;23.256;2024-03-08T10:09:24;4.63;;;3.20;;
6527;SDS011;64597;42.664;23.256;2024-03-08T10:12:01;6.07;;;2.20;;
6527;SDS011;64597;42.664;23.256;2024-03-08T10:14:27;4.18;;;2.72;;
6527;SDS011;64597;42.664;23.256;2024-03-08T10:16:53;5.57;;;2.53;;
6527;SDS011;64597;42.664;23.256;2024-03-08T10:19:19;10.85;;;3.22;;
6527;SDS011;64597;42.664;23.256;2024-03-08T10:21:51;5.45;;;2.53;;
6527;SDS011;64597;42.664;23.256;2024-03-08T10:24:18;3.42;;;2.15;;
6527;SDS011;64597;42.664;23.256;2024-03-08T10:26:44;5.35;;;2.65;;
6527;SDS011;64597;42.664;23.256;2024-03-08T10:29:13;4.07;;;2.47;;
6527;SDS011;64597;42.664;23.256;2024-03-08T10:31:48;3.47;;;2.70;;
6527;SDS011;64597;42.664;23.256;2024-03-08T10:34:17;5.03;;;2.47;;
6527;SDS011;64597;42.664;23.256;2024-03-08T10:36:55;2.83;;;1.73;;
6527;SDS011;64597;42.664;23.256;2024-03-08T10:39:35;3.90;;;2.75;;
6527;SDS011;64597;42.664;23.256;2024-03-08T10:42:04;8.38;;;2.65;;
6527;SDS011;64597;42.664;23.256;2024-03-08T10:45:05;4.03;;;2.78;;
6527;SDS011;64597;42.664;23.256;2024-03-08T10:47:33;12.45;;;4.93;;
6527;SDS011;64597;42.664;23.256;2024-03-08T10:50:19;3.47;;;2.00;;
6527;SDS011;64597;42.664;23.256;2024-03-08T10:52:50;5.93;;;2.05;;
6527;SDS011;64597;42.664;23.256;2024-03-08T10:55:19;5.15;;;2.75;;
6527;SDS011;64597;42.664;23.256;2024-03-08T10:57:46;4.40;;;2.08;;
6527;SDS011;64597;42.664;23.256;2024-03-08T11:00:16;7.60;;;2.20;;
6527;SDS011;64597;42.664;23.256;2024-03-08T11:02:44;5.03;;;2.15;;
6527;SDS011;64597;42.664;23.256;2024-03-08T11:05:10;4.75;;;1.80;;
6527;SDS011;64597;42.664;23.256;2024-03-08T11:07:40;4.40;;;2.20;;
6527;SDS011;64597;42.664;23.256;2024-03-08T11:10:18;6.25;;;2.58;;
6527;SDS011;64597;42.664;23.256;2024-03-08T11:12:44;4.82;;;2.10;;
6527;SDS011;64597;42.664;23.256;2024-03-08T11:15:11;2.50;;;1.15;;
6527;SDS011;64597;42.664;23.256;2024-03-08T11:20:08;4.38;;;1.52;;
6527;SDS011;64597;42.664;23.256;2024-03-08T11:22:51;2.08;;;1.35;;
6527;SDS011;64597;42.664;23.256;2024-03-08T11:28:10;2.80;;;1.48;;
6527;SDS011;64597;42.664;23.256;2024-03-08T11:30:36;2.38;;;1.50;;
6527;SDS011;64597;42.664;23.256;2024-03-08T11:33:03;2.90;;;1.52;;
6527;SDS011;64597;42.664;23.256;2024-03-08T11:35:29;1.80;;;1.35;;
6527;SDS011;64597;42.664;23.256;2024-03-08T11:37:54;5.63;;;1.65;;
6527;SDS011;64597;42.664;23.256;2024-03-08T11:40:23;2.40;;;1.40;;
6527;SDS011;64597;42.664;23.256;2024-03-08T11:42:49;1.85;;;1.30;;
6527;SDS011;64597;42.664;23.256;2024-03-08T11:45:16;2.85;;;1.58;;
6527;SDS011;64597;42.664;23.256;2024-03-08T11:47:43;1.63;;;1.30;;
6527;SDS011;64597;42.664;23.256;2024-03-08T11:50:11;2.55;;;1.60;;
6527;SDS011;64597;42.664;23.256;2024-03-08T11:52:38;4.43;;;2.22;;
6527;SDS011;64597;42.664;23.256;2024-03-08T11:55:03;3.28;;;1.90;;
6527;SDS011;64597;42.664;23.256;2024-03-08T11:57:30;2.70;;;1.83;;
6527;SDS011;64597;42.664;23.256;2024-03-08T11:59:57;2.33;;;1.70;;
6527;SDS011;64597;42.664;23.256;2024-03-08T12:04:57;2.20;;;1.52;;
6527;SDS011;64597;42.664;23.256;2024-03-08T12:07:28;2.90;;;1.95;;
6527;SDS011;64597;42.664;23.256;2024-03-08T12:12:54;3.47;;;2.03;;
6527;SDS011;64597;42.664;23.256;2024-03-08T12:15:24;3.15;;;1.67;;
6527;SDS011;64597;42.664;23.256;2024-03-08T12:17:51;2.10;;;1.40;;
6527;SDS011;64597;42.664;23.256;2024-03-08T12:20:18;3.28;;;1.70;;
6527;SDS011;64597;42.664;23.256;2024-03-08T12:22:49;2.42;;;1.55;;
6527;SDS011;64597;42.664;23.256;2024-03-08T12:25:18;3.97;;;1.40;;
6527;SDS011;64597;42.664;23.256;2024-03-08T12:27:44;3.78;;;2.08;;
6527;SDS011;64597;42.664;23.256;2024-03-08T12:32:58;2.45;;;1.40;;
6527;SDS011;64597;42.664;23.256;2024-03-08T12:35:26;5.38;;;2.33;;
6527;SDS011;64597;42.664;23.256;2024-03-08T12:37:54;2.22;;;1.38;;
6527;SDS011;64597;42.664;23.256;2024-03-08T12:40:30;5.80;;;1.98;;
6527;SDS011;64597;42.664;23.256;2024-03-08T12:43:01;2.90;;;1.40;;
6527;SDS011;64597;42.664;23.256;2024-03-08T12:45:33;3.53;;;2.05;;
6527;SDS011;64597;42.664;23.256;2024-03-08T12:47:58;1.73;;;1.42;;
6527;SDS011;64597;42.664;23.256;2024-03-08T12:50:24;2.75;;;1.60;;
6527;SDS011;64597;42.664;23.256;2024-03-08T12:52:50;4.35;;;1.90;;
6527;SDS011;64597;42.664;23.256;2024-03-08T12:55:17;2.60;;;1.73;;
6527;SDS011;64597;42.664;23.256;2024-03-08T12:57:43;3.80;;;1.52;;
6527;SDS011;64597;42.664;23.256;2024-03-08T13:00:09;3.55;;;1.38;;
6527;SDS011;64597;42.664;23.256;2024-03-08T13:05:12;4.18;;;1.52;;
6527;SDS011;64597;42.664;23.256;2024-03-08T13:07:39;3.20;;;1.70;;
6527;SDS011;64597;42.664;23.256;2024-03-08T13:10:06;2.13;;;1.45;;
6527;SDS011;64597;42.664;23.256;2024-03-08T13:12:32;2.78;;;1.60;;
6527;SDS011;64597;42.664;23.256;2024-03-08T13:14:58;2.83;;;1.38;;
6527;SDS011;64597;42.664;23.256;2024-03-08T13:17:23;3.58;;;1.73;;
6527;SDS011;64597;42.664;23.256;2024-03-08T13:19:49;3.25;;;1.42;;
6527;SDS011;64597;42.664;23.256;2024-03-08T13:22:14;2.45;;;1.45;;
6527;SDS011;64597;42.664;23.256;2024-03-08T13:24:44;3.38;;;1.75;;
6527;SDS011;64597;42.664;23.256;2024-03-08T13:27:10;1.60;;;1.40;;
6527;SDS011;64597;42.664;23.256;2024-03-08T13:29:49;3.00;;;1.60;;
6527;SDS011;64597;42.664;23.256;2024-03-08T13:32:15;2.25;;;1.60;;
6527;SDS011;64597;42.664;23.256;2024-03-08T13:34:45;1.73;;;1.38;;
6527;SDS011;64597;42.664;23.256;2024-03-08T13:37:10;2.47;;;2.00;;
6527;SDS011;64597;42.664;23.256;2024-03-08T13:39:36;4.75;;;2.10;;
6527;SDS011;64597;42.664;23.256;2024-03-08T13:42:10;2.58;;;1.90;;
6527;SDS011;64597;42.664;23.256;2024-03-08T13:44:38;3.10;;;1.40;;
6527;SDS011;64597;42.664;23.256;2024-03-08T13:47:04;2.38;;;1.48;;
6527;SDS011;64597;42.664;23.256;2024-03-08T13:49:30;2.95;;;1.55;;
6527;SDS011;64597;42.664;23.256;2024-03-08T13:51:56;1.48;;;1.38;;
6527;SDS011;64597;42.664;23.256;2024-03-08T13:54:24;2.78;;;1.60;;
6527;SDS011;64597;42.664;23.256;2024-03-08T13:56:49;2.78;;;1.65;;
6527;SDS011;64597;42.664;23.256;2024-03-08T13:59:17;2.47;;;1.55;;
6527;SDS011;64597;42.664;23.256;2024-03-08T14:01:43;2.45;;;1.55;;
6527;SDS011;64597;42.664;23.256;2024-03-08T14:04:09;4.78;;;1.75;;
6527;SDS011;64597;42.664;23.256;2024-03-08T14:06:34;2.28;;;1.35;;
6527;SDS011;64597;42.664;23.256;2024-03-08T14:09:00;2.45;;;1.38;;
6527;SDS011;64597;42.664;23.256;2024-03-08T14:11:26;4.07;;;2.47;;
6527;SDS011;64597;42.664;23.256;2024-03-08T14:13:52;3.78;;;2.25;;
6527;SDS011;64597;42.664;23.256;2024-03-08T14:16:18;3.42;;;1.80;;
6527;SDS011;64597;42.664;23.256;2024-03-08T14:18:44;5.53;;;2.42;;
6527;SDS011;64597;42.664;23.256;2024-03-08T14:21:10;5.03;;;2.30;;
6527;SDS011;64597;42.664;23.256;2024-03-08T14:23:35;5.82;;;3.08;;
6527;SDS011;64597;42.664;23.256;2024-03-08T14:26:05;5.82;;;2.95;;
6527;SDS011;64597;42.664;23.256;2024-03-08T14:28:33;2.70;;;1.67;;
6527;SDS011;64597;42.664;23.256;2024-03-08T14:30:58;4.40;;;2.28;;
6527;SDS011;64597;42.664;23.256;2024-03-08T14:33:28;1.83;;;1.08;;
6527;SDS011;64597;42.664;23.256;2024-03-08T14:35:54;2.05;;;1.15;;
6527;SDS011;64597;42.664;23.256;2024-03-08T14:38:21;2.78;;;1.20;;
6527;SDS011;64597;42.664;23.256;2024-03-08T14:40:46;2.40;;;1.50;;
6527;SDS011;64597;42.664;23.256;2024-03-08T14:43:12;2.17;;;1.30;;
6527;SDS011;64597;42.664;23.256;2024-03-08T14:45:41;3.45;;;2.10;;
6527;SDS011;64597;42.664;23.256;2024-03-08T14:48:07;3.42;;;2.08;;
6527;SDS011;64597;42.664;23.256;2024-03-08T14:50:34;4.82;;;2.13;;
6527;SDS011;64597;42.664;23.256;2024-03-08T14:53:02;2.38;;;1.48;;
6527;SDS011;64597;42.664;23.256;2024-03-08T14:55:31;4.30;;;2.08;;
6527;SDS011;64597;42.664;23.256;2024-03-08T14:57:57;4.00;;;1.65;;
6527;SDS011;64597;42.664;23.256;2024-03-08T15:00:23;1.95;;;1.20;;
6527;SDS011;64597;42.664;23.256;2024-03-08T15:03:01;3.03;;;0.95;;
6527;SDS011;64597;42.664;23.256;2024-03-08T15:05:27;2.25;;;0.90;;
6527;SDS011;64597;42.664;23.256;2024-03-08T15:07:53;4.60;;;1.27;;
6527;SDS011;64597;42.664;23.256;2024-03-08T15:10:20;2.85;;;1.55;;
6527;SDS011;64597;42.664;23.256;2024-03-08T15:12:49;5.05;;;2.15;;
6527;SDS011;64597;42.664;23.256;2024-03-08T15:17:45;4.20;;;1.80;;
6527;SDS011;64597;42.664;23.256;2024-03-08T15:20:18;3.40;;;1.73;;
6527;SDS011;64597;42.664;23.256;2024-03-08T15:23:06;4.32;;;2.28;;
6527;SDS011;64597;42.664;23.256;2024-03-08T15:25:35;4.50;;;2.05;;
6527;SDS011;64597;42.664;23.256;2024-03-08T15:28:07;5.57;;;2.35;;
6527;SDS011;64597;42.664;23.256;2024-03-08T15:30:41;4.63;;;1.85;;
6527;SDS011;64597;42.664;23.256;2024-03-08T15:33:19;2.33;;;1.92;;
6527;SDS011;64597;42.664;23.256;2024-03-08T15:35:50;3.25;;;1.70;;